sensor_id;sensor_type;location;lat;lon;timestamp;P1;durP1;ratioP1;P2;durP2;ratioP2
12958;SDS011;6544;51.666;6.634;2023-02-13T00:00:48;37.45;;;28.65;;
12958;SDS011;6544;51.666;6.634;2023-02-13T00:03:15;36.45;;;27.00;;
12958;SDS011;6544;51.666;6.634;2023-02-13T00:05:41;36.33;;;27.02;;
12958;SDS011;6544;51.666;6.634;2023-02-13T00:08:08;33.53;;;25.73;;
12958;SDS011;6544;51.666;6.634;2023-02-13T00:10:35;36.97;;;25.55;;
12958;SDS011;6544;51.666;6.634;2023-02-13T00:13:03;32.70;;;26.30;;
12958;SDS011;6544;51.666;6.634;2023-02-13T00:15:30;34.88;;;24.48;;
12958;SDS011;6544;51.666;6.634;2023-02-13T00:17:57;33.10;;;24.98;;
12958;SDS011;6544;51.666;6.634;2023-02-13T00:20:24;33.60;;;24.98;;
12958;SDS011;6544;51.666;6.634;2023-02-13T00:22:51;27.88;;;21.52;;
12958;SDS011;6544;51.666;6.634;2023-02-13T00:25:18;28.25;;;22.42;;
12958;SDS011;6544;51.666;6.634;2023-02-13T00:27:45;28.52;;;21.48;;
12958;SDS011;6544;51.666;6.634;2023-02-13T00:32:42;29.58;;;22.70;;
12958;SDS011;6544;51.666;6.634;2023-02-13T00:35:09;27.48;;;20.65;;
12958;SDS011;6544;51.666;6.634;2023-02-13T00:37:36;26.23;;;21.23;;
12958;SDS011;6544;51.666;6.634;2023-02-13T00:40:03;28.00;;;21.90;;
12958;SDS011;6544;51.666;6.634;2023-02-13T00:42:31;31.10;;;22.20;;
12958;SDS011;6544;51.666;6.634;2023-02-13T00:44:57;27.90;;;21.55;;
12958;SDS011;6544;51.666;6.634;2023-02-13T00:47:26;28.40;;;21.58;;
12958;SDS011;6544;51.666;6.634;2023-02-13T00:49:52;26.77;;;20.30;;
12958;SDS011;6544;51.666;6.634;2023-02-13T00:52:19;26.80;;;20.77;;
12958;SDS011;6544;51.666;6.634;2023-02-13T00:54:46;27.90;;;20.27;;
12958;SDS011;6544;51.666;6.634;2023-02-13T00:57:13;25.95;;;20.75;;
12958;SDS011;6544;51.666;6.634;2023-02-13T00:59:40;26.00;;;19.02;;
12958;SDS011;6544;51.666;6.634;2023-02-13T01:02:07;26.52;;;20.42;;
12958;SDS011;6544;51.666;6.634;2023-02-13T01:04:35;26.45;;;19.08;;
12958;SDS011;6544;51.666;6.634;2023-02-13T01:07:02;27.40;;;19.83;;
12958;SDS011;6544;51.666;6.634;2023-02-13T01:09:29;24.50;;;18.77;;
12958;SDS011;6544;51.666;6.634;2023-02-13T01:11:56;24.67;;;18.83;;
12958;SDS011;6544;51.666;6.634;2023-02-13T01:14:23;23.73;;;18.35;;
12958;SDS011;6544;51.666;6.634;2023-02-13T01:16:50;22.75;;;18.27;;
12958;SDS011;6544;51.666;6.634;2023-02-13T01:19:17;26.42;;;19.42;;
12958;SDS011;6544;51.666;6.634;2023-02-13T01:21:45;22.30;;;18.00;;
12958;SDS011;6544;51.666;6.634;2023-02-13T01:24:12;25.45;;;17.67;;
12958;SDS011;6544;51.666;6.634;2023-02-13T01:26:39;23.20;;;17.52;;
12958;SDS011;6544;51.666;6.634;2023-02-13T01:29:06;21.77;;;17.25;;
12958;SDS011;6544;51.666;6.634;2023-02-13T01:31:33;22.58;;;17.35;;
12958;SDS011;6544;51.666;6.634;2023-02-13T01:34:00;21.70;;;16.42;;
12958;SDS011;6544;51.666;6.634;2023-02-13T01:36:27;21.48;;;16.08;;
12958;SDS011;6544;51.666;6.634;2023-02-13T01:38:55;19.88;;;16.55;;
12958;SDS011;6544;51.666;6.634;2023-02-13T01:41:24;20.83;;;15.90;;
12958;SDS011;6544;51.666;6.634;2023-02-13T01:43:53;21.85;;;16.52;;
12958;SDS011;6544;51.666;6.634;2023-02-13T01:46:23;19.42;;;15.18;;
12958;SDS011;6544;51.666;6.634;2023-02-13T01:48:55;19.08;;;15.07;;
12958;SDS011;6544;51.666;6.634;2023-02-13T01:51:28;20.65;;;16.30;;
12958;SDS011;6544;51.666;6.634;2023-02-13T01:53:59;24.10;;;16.75;;
12958;SDS011;6544;51.666;6.634;2023-02-13T01:56:29;21.45;;;16.05;;
12958;SDS011;6544;51.666;6.634;2023-02-13T01:58:59;19.25;;;15.80;;
12958;SDS011;6544;51.666;6.634;2023-02-13T02:01:30;18.88;;;15.55;;
12958;SDS011;6544;51.666;6.634;2023-02-13T02:03:58;21.42;;;16.85;;
12958;SDS011;6544;51.666;6.634;2023-02-13T02:06:38;21.15;;;16.73;;
12958;SDS011;6544;51.666;6.634;2023-02-13T02:09:10;20.63;;;17.17;;
12958;SDS011;6544;51.666;6.634;2023-02-13T02:11:40;19.55;;;16.45;;
12958;SDS011;6544;51.666;6.634;2023-02-13T02:14:11;21.67;;;17.20;;
12958;SDS011;6544;51.666;6.634;2023-02-13T02:16:38;22.00;;;17.02;;
12958;SDS011;6544;51.666;6.634;2023-02-13T02:19:13;22.80;;;17.55;;
12958;SDS011;6544;51.666;6.634;2023-02-13T02:22:04;23.80;;;17.52;;
12958;SDS011;6544;51.666;6.634;2023-02-13T02:28:30;22.02;;;17.02;;
12958;SDS011;6544;51.666;6.634;2023-02-13T02:31:18;21.20;;;16.80;;
12958;SDS011;6544;51.666;6.634;2023-02-13T02:34:22;22.38;;;16.58;;
12958;SDS011;6544;51.666;6.634;2023-02-13T02:37:10;23.55;;;16.95;;
12958;SDS011;6544;51.666;6.634;2023-02-13T02:39:56;22.75;;;17.27;;
12958;SDS011;6544;51.666;6.634;2023-02-13T02:42:29;23.35;;;18.27;;
12958;SDS011;6544;51.666;6.634;2023-02-13T02:45:07;21.65;;;17.02;;
12958;SDS011;6544;51.666;6.634;2023-02-13T02:47:45;24.08;;;18.83;;
12958;SDS011;6544;51.666;6.634;2023-02-13T02:50:36;23.80;;;17.40;;
12958;SDS011;6544;51.666;6.634;2023-02-13T02:53:11;22.65;;;17.90;;
12958;SDS011;6544;51.666;6.634;2023-02-13T02:55:47;22.83;;;17.65;;
12958;SDS011;6544;51.666;6.634;2023-02-13T02:58:23;24.05;;;18.48;;
12958;SDS011;6544;51.666;6.634;2023-02-13T03:01:12;23.15;;;18.23;;
12958;SDS011;6544;51.666;6.634;2023-02-13T03:04:00;23.73;;;18.50;;
12958;SDS011;6544;51.666;6.634;2023-02-13T03:06:47;25.05;;;19.08;;
12958;SDS011;6544;51.666;6.634;2023-02-13T03:09:18;23.38;;;19.08;;
12958;SDS011;6544;51.666;6.634;2023-02-13T03:12:06;22.45;;;18.08;;
12958;SDS011;6544;51.666;6.634;2023-02-13T03:15:06;23.20;;;18.17;;
12958;SDS011;6544;51.666;6.634;2023-02-13T03:17:34;22.33;;;18.58;;
12958;SDS011;6544;51.666;6.634;2023-02-13T03:23:18;22.75;;;18.20;;
12958;SDS011;6544;51.666;6.634;2023-02-13T03:28:59;19.58;;;15.63;;
12958;SDS011;6544;51.666;6.634;2023-02-13T03:31:52;19.38;;;16.13;;
12958;SDS011;6544;51.666;6.634;2023-02-13T03:34:26;19.40;;;14.85;;
12958;SDS011;6544;51.666;6.634;2023-02-13T03:37:22;18.33;;;14.20;;
12958;SDS011;6544;51.666;6.634;2023-02-13T03:40:12;19.10;;;13.98;;
12958;SDS011;6544;51.666;6.634;2023-02-13T03:42:44;17.02;;;13.50;;
12958;SDS011;6544;51.666;6.634;2023-02-13T03:45:17;13.90;;;11.93;;
12958;SDS011;6544;51.666;6.634;2023-02-13T03:48:06;16.95;;;12.45;;
12958;SDS011;6544;51.666;6.634;2023-02-13T03:50:54;14.70;;;10.85;;
12958;SDS011;6544;51.666;6.634;2023-02-13T03:53:23;13.02;;;10.43;;
12958;SDS011;6544;51.666;6.634;2023-02-13T03:55:52;13.25;;;10.40;;
12958;SDS011;6544;51.666;6.634;2023-02-13T03:58:39;15.10;;;11.10;;
12958;SDS011;6544;51.666;6.634;2023-02-13T04:01:27;14.13;;;10.50;;
12958;SDS011;6544;51.666;6.634;2023-02-13T04:04:00;15.60;;;11.30;;
12958;SDS011;6544;51.666;6.634;2023-02-13T04:06:33;13.85;;;10.63;;
12958;SDS011;6544;51.666;6.634;2023-02-13T04:09:05;18.20;;;12.18;;
12958;SDS011;6544;51.666;6.634;2023-02-13T04:11:33;16.30;;;11.93;;
12958;SDS011;6544;51.666;6.634;2023-02-13T04:14:06;14.20;;;10.85;;
12958;SDS011;6544;51.666;6.634;2023-02-13T04:16:39;15.23;;;12.20;;
12958;SDS011;6544;51.666;6.634;2023-02-13T04:19:09;16.42;;;12.45;;
12958;SDS011;6544;51.666;6.634;2023-02-13T04:21:38;16.60;;;12.60;;
12958;SDS011;6544;51.666;6.634;2023-02-13T04:24:07;16.73;;;12.02;;
12958;SDS011;6544;51.666;6.634;2023-02-13T04:26:36;16.88;;;11.82;;
12958;SDS011;6544;51.666;6.634;2023-02-13T04:29:04;12.20;;;9.60;;
12958;SDS011;6544;51.666;6.634;2023-02-13T04:31:31;12.93;;;10.68;;
12958;SDS011;6544;51.666;6.634;2023-02-13T04:33:58;12.55;;;9.95;;
12958;SDS011;6544;51.666;6.634;2023-02-13T04:36:25;12.45;;;9.60;;
12958;SDS011;6544;51.666;6.634;2023-02-13T04:38:52;13.98;;;9.43;;
12958;SDS011;6544;51.666;6.634;2023-02-13T04:41:20;12.00;;;9.57;;
12958;SDS011;6544;51.666;6.634;2023-02-13T04:43:47;12.60;;;9.90;;
12958;SDS011;6544;51.666;6.634;2023-02-13T04:46:16;12.20;;;10.00;;
12958;SDS011;6544;51.666;6.634;2023-02-13T04:48:43;14.00;;;10.50;;
12958;SDS011;6544;51.666;6.634;2023-02-13T04:51:10;12.70;;;10.13;;
12958;SDS011;6544;51.666;6.634;2023-02-13T04:53:37;13.32;;;9.50;;
12958;SDS011;6544;51.666;6.634;2023-02-13T04:56:04;13.30;;;10.43;;
12958;SDS011;6544;51.666;6.634;2023-02-13T04:58:32;12.55;;;8.93;;
12958;SDS011;6544;51.666;6.634;2023-02-13T05:00:59;11.63;;;9.27;;
12958;SDS011;6544;51.666;6.634;2023-02-13T05:03:26;12.48;;;9.60;;
12958;SDS011;6544;51.666;6.634;2023-02-13T05:05:53;12.13;;;9.57;;
12958;SDS011;6544;51.666;6.634;2023-02-13T05:08:20;12.50;;;9.27;;
12958;SDS011;6544;51.666;6.634;2023-02-13T05:10:47;12.18;;;9.88;;
12958;SDS011;6544;51.666;6.634;2023-02-13T05:13:14;12.82;;;10.02;;
12958;SDS011;6544;51.666;6.634;2023-02-13T05:15:42;12.18;;;9.48;;
12958;SDS011;6544;51.666;6.634;2023-02-13T05:18:09;15.07;;;9.55;;
12958;SDS011;6544;51.666;6.634;2023-02-13T05:20:35;13.88;;;9.82;;
12958;SDS011;6544;51.666;6.634;2023-02-13T05:23:02;12.48;;;10.48;;
12958;SDS011;6544;51.666;6.634;2023-02-13T05:25:46;13.18;;;10.30;;
12958;SDS011;6544;51.666;6.634;2023-02-13T05:28:14;12.60;;;10.40;;
12958;SDS011;6544;51.666;6.634;2023-02-13T05:31:00;14.20;;;9.95;;
12958;SDS011;6544;51.666;6.634;2023-02-13T05:33:26;11.75;;;9.60;;
12958;SDS011;6544;51.666;6.634;2023-02-13T05:35:53;12.27;;;10.38;;
12958;SDS011;6544;51.666;6.634;2023-02-13T05:38:20;14.80;;;10.85;;
12958;SDS011;6544;51.666;6.634;2023-02-13T05:40:47;14.23;;;10.55;;
12958;SDS011;6544;51.666;6.634;2023-02-13T05:43:14;10.88;;;9.18;;
12958;SDS011;6544;51.666;6.634;2023-02-13T05:45:41;14.48;;;10.27;;
12958;SDS011;6544;51.666;6.634;2023-02-13T05:48:09;11.50;;;8.98;;
12958;SDS011;6544;51.666;6.634;2023-02-13T05:50:36;12.07;;;9.73;;
12958;SDS011;6544;51.666;6.634;2023-02-13T05:53:03;12.02;;;8.57;;
12958;SDS011;6544;51.666;6.634;2023-02-13T05:55:30;11.93;;;8.60;;
12958;SDS011;6544;51.666;6.634;2023-02-13T05:57:57;11.50;;;9.07;;
12958;SDS011;6544;51.666;6.634;2023-02-13T06:00:24;11.82;;;9.30;;
12958;SDS011;6544;51.666;6.634;2023-02-13T06:02:51;10.65;;;9.00;;
12958;SDS011;6544;51.666;6.634;2023-02-13T06:05:19;10.98;;;9.02;;
12958;SDS011;6544;51.666;6.634;2023-02-13T06:07:46;11.50;;;9.30;;
12958;SDS011;6544;51.666;6.634;2023-02-13T06:10:13;16.13;;;9.82;;
12958;SDS011;6544;51.666;6.634;2023-02-13T06:12:41;11.60;;;9.45;;
12958;SDS011;6544;51.666;6.634;2023-02-13T06:15:08;12.80;;;9.00;;
12958;SDS011;6544;51.666;6.634;2023-02-13T06:17:35;12.13;;;9.05;;
12958;SDS011;6544;51.666;6.634;2023-02-13T06:20:02;11.25;;;9.52;;
12958;SDS011;6544;51.666;6.634;2023-02-13T06:22:31;12.23;;;9.18;;
12958;SDS011;6544;51.666;6.634;2023-02-13T06:24:58;11.35;;;9.30;;
12958;SDS011;6544;51.666;6.634;2023-02-13T06:27:25;11.57;;;8.98;;
12958;SDS011;6544;51.666;6.634;2023-02-13T06:29:51;13.13;;;9.20;;
12958;SDS011;6544;51.666;6.634;2023-02-13T06:32:18;11.38;;;9.20;;
12958;SDS011;6544;51.666;6.634;2023-02-13T06:34:45;11.48;;;9.07;;
12958;SDS011;6544;51.666;6.634;2023-02-13T06:37:12;10.88;;;8.70;;
12958;SDS011;6544;51.666;6.634;2023-02-13T06:39:40;12.20;;;9.52;;
12958;SDS011;6544;51.666;6.634;2023-02-13T06:42:07;13.45;;;9.07;;
12958;SDS011;6544;51.666;6.634;2023-02-13T06:44:34;12.40;;;9.35;;
12958;SDS011;6544;51.666;6.634;2023-02-13T06:47:01;12.70;;;9.65;;
12958;SDS011;6544;51.666;6.634;2023-02-13T06:49:28;14.30;;;8.75;;
12958;SDS011;6544;51.666;6.634;2023-02-13T06:51:55;14.30;;;9.85;;
12958;SDS011;6544;51.666;6.634;2023-02-13T06:54:22;13.63;;;10.43;;
12958;SDS011;6544;51.666;6.634;2023-02-13T06:56:50;12.75;;;9.77;;
12958;SDS011;6544;51.666;6.634;2023-02-13T06:59:17;13.10;;;10.18;;
12958;SDS011;6544;51.666;6.634;2023-02-13T07:01:44;12.23;;;9.77;;
12958;SDS011;6544;51.666;6.634;2023-02-13T07:04:11;13.30;;;9.40;;
12958;SDS011;6544;51.666;6.634;2023-02-13T07:06:38;13.25;;;10.55;;
12958;SDS011;6544;51.666;6.634;2023-02-13T07:09:04;19.80;;;10.55;;
12958;SDS011;6544;51.666;6.634;2023-02-13T07:11:31;12.85;;;10.63;;
12958;SDS011;6544;51.666;6.634;2023-02-13T07:14:00;16.20;;;11.00;;
12958;SDS011;6544;51.666;6.634;2023-02-13T07:16:26;15.57;;;10.93;;
12958;SDS011;6544;51.666;6.634;2023-02-13T07:18:53;13.20;;;10.05;;
12958;SDS011;6544;51.666;6.634;2023-02-13T07:21:22;14.57;;;10.32;;
12958;SDS011;6544;51.666;6.634;2023-02-13T07:23:50;15.85;;;10.75;;
12958;SDS011;6544;51.666;6.634;2023-02-13T07:26:16;14.52;;;10.77;;
12958;SDS011;6544;51.666;6.634;2023-02-13T07:28:43;12.13;;;10.20;;
12958;SDS011;6544;51.666;6.634;2023-02-13T07:31:12;15.52;;;11.43;;
12958;SDS011;6544;51.666;6.634;2023-02-13T07:33:39;13.75;;;10.90;;
12958;SDS011;6544;51.666;6.634;2023-02-13T07:36:06;13.52;;;10.77;;
12958;SDS011;6544;51.666;6.634;2023-02-13T07:38:33;14.75;;;11.55;;
12958;SDS011;6544;51.666;6.634;2023-02-13T07:41:00;15.70;;;11.55;;
12958;SDS011;6544;51.666;6.634;2023-02-13T07:43:28;13.68;;;11.27;;
12958;SDS011;6544;51.666;6.634;2023-02-13T07:45:57;14.40;;;10.60;;
12958;SDS011;6544;51.666;6.634;2023-02-13T07:48:25;15.05;;;12.20;;
12958;SDS011;6544;51.666;6.634;2023-02-13T07:50:53;14.55;;;11.93;;
12958;SDS011;6544;51.666;6.634;2023-02-13T07:53:20;16.83;;;12.45;;
12958;SDS011;6544;51.666;6.634;2023-02-13T07:55:47;15.50;;;11.35;;
12958;SDS011;6544;51.666;6.634;2023-02-13T07:58:14;15.45;;;12.60;;
12958;SDS011;6544;51.666;6.634;2023-02-13T08:00:41;17.65;;;11.60;;
12958;SDS011;6544;51.666;6.634;2023-02-13T08:03:08;14.82;;;11.70;;
12958;SDS011;6544;51.666;6.634;2023-02-13T08:05:36;15.82;;;11.55;;
12958;SDS011;6544;51.666;6.634;2023-02-13T08:08:04;14.07;;;10.95;;
12958;SDS011;6544;51.666;6.634;2023-02-13T08:10:32;16.65;;;11.93;;
12958;SDS011;6544;51.666;6.634;2023-02-13T08:13:17;16.48;;;12.18;;
12958;SDS011;6544;51.666;6.634;2023-02-13T08:15:44;14.63;;;11.32;;
12958;SDS011;6544;51.666;6.634;2023-02-13T08:18:11;13.35;;;10.35;;
12958;SDS011;6544;51.666;6.634;2023-02-13T08:20:39;15.55;;;11.20;;
12958;SDS011;6544;51.666;6.634;2023-02-13T08:23:08;17.70;;;10.75;;
12958;SDS011;6544;51.666;6.634;2023-02-13T08:25:36;15.13;;;11.30;;
12958;SDS011;6544;51.666;6.634;2023-02-13T08:28:04;13.35;;;10.48;;
12958;SDS011;6544;51.666;6.634;2023-02-13T08:30:31;11.75;;;9.30;;
12958;SDS011;6544;51.666;6.634;2023-02-13T08:32:58;15.27;;;10.35;;
12958;SDS011;6544;51.666;6.634;2023-02-13T08:35:25;12.07;;;9.80;;
12958;SDS011;6544;51.666;6.634;2023-02-13T08:37:55;12.27;;;9.77;;
12958;SDS011;6544;51.666;6.634;2023-02-13T08:40:22;14.32;;;10.75;;
12958;SDS011;6544;51.666;6.634;2023-02-13T08:42:49;14.68;;;10.20;;
12958;SDS011;6544;51.666;6.634;2023-02-13T08:45:15;11.95;;;9.73;;
12958;SDS011;6544;51.666;6.634;2023-02-13T08:47:43;17.05;;;11.30;;
12958;SDS011;6544;51.666;6.634;2023-02-13T08:50:09;13.55;;;10.63;;
12958;SDS011;6544;51.666;6.634;2023-02-13T08:52:36;15.05;;;10.85;;
12958;SDS011;6544;51.666;6.634;2023-02-13T08:55:05;12.80;;;10.60;;
12958;SDS011;6544;51.666;6.634;2023-02-13T08:57:32;16.10;;;11.18;;
12958;SDS011;6544;51.666;6.634;2023-02-13T08:59:59;14.55;;;10.85;;
12958;SDS011;6544;51.666;6.634;2023-02-13T09:02:26;14.68;;;10.85;;
12958;SDS011;6544;51.666;6.634;2023-02-13T09:04:53;13.73;;;10.70;;
12958;SDS011;6544;51.666;6.634;2023-02-13T09:07:20;12.65;;;10.43;;
12958;SDS011;6544;51.666;6.634;2023-02-13T09:09:47;12.15;;;9.70;;
12958;SDS011;6544;51.666;6.634;2023-02-13T09:12:15;13.40;;;10.45;;
12958;SDS011;6544;51.666;6.634;2023-02-13T09:14:42;15.00;;;10.73;;
12958;SDS011;6544;51.666;6.634;2023-02-13T09:17:09;11.93;;;9.93;;
12958;SDS011;6544;51.666;6.634;2023-02-13T09:19:35;13.95;;;10.02;;
12958;SDS011;6544;51.666;6.634;2023-02-13T09:22:02;12.70;;;9.77;;
12958;SDS011;6544;51.666;6.634;2023-02-13T09:24:29;13.82;;;10.05;;
12958;SDS011;6544;51.666;6.634;2023-02-13T09:26:56;12.50;;;9.30;;
12958;SDS011;6544;51.666;6.634;2023-02-13T09:29:24;12.48;;;9.70;;
12958;SDS011;6544;51.666;6.634;2023-02-13T09:31:54;12.80;;;10.13;;
12958;SDS011;6544;51.666;6.634;2023-02-13T09:34:21;12.45;;;9.52;;
12958;SDS011;6544;51.666;6.634;2023-02-13T09:36:50;17.27;;;10.30;;
12958;SDS011;6544;51.666;6.634;2023-02-13T09:39:17;12.70;;;9.82;;
12958;SDS011;6544;51.666;6.634;2023-02-13T09:41:44;13.13;;;9.52;;
12958;SDS011;6544;51.666;6.634;2023-02-13T09:44:14;13.00;;;9.43;;
12958;SDS011;6544;51.666;6.634;2023-02-13T09:46:58;13.00;;;9.82;;
12958;SDS011;6544;51.666;6.634;2023-02-13T09:49:30;12.25;;;9.05;;
12958;SDS011;6544;51.666;6.634;2023-02-13T09:52:00;12.82;;;9.27;;
12958;SDS011;6544;51.666;6.634;2023-02-13T09:54:27;16.35;;;9.80;;
12958;SDS011;6544;51.666;6.634;2023-02-13T09:56:57;12.23;;;9.60;;
12958;SDS011;6544;51.666;6.634;2023-02-13T09:59:30;10.15;;;8.85;;
12958;SDS011;6544;51.666;6.634;2023-02-13T10:02:17;13.20;;;10.25;;
12958;SDS011;6544;51.666;6.634;2023-02-13T10:05:03;12.80;;;9.57;;
12958;SDS011;6544;51.666;6.634;2023-02-13T10:07:43;12.10;;;9.85;;
12958;SDS011;6544;51.666;6.634;2023-02-13T10:10:20;10.93;;;9.25;;
12958;SDS011;6544;51.666;6.634;2023-02-13T10:12:59;12.70;;;9.68;;
12958;SDS011;6544;51.666;6.634;2023-02-13T10:15:41;12.15;;;9.93;;
12958;SDS011;6544;51.666;6.634;2023-02-13T10:18:16;13.52;;;9.20;;
12958;SDS011;6544;51.666;6.634;2023-02-13T10:20:47;12.93;;;9.15;;
12958;SDS011;6544;51.666;6.634;2023-02-13T10:23:21;12.20;;;9.07;;
12958;SDS011;6544;51.666;6.634;2023-02-13T10:25:53;11.30;;;8.50;;
12958;SDS011;6544;51.666;6.634;2023-02-13T10:28:33;11.23;;;9.10;;
12958;SDS011;6544;51.666;6.634;2023-02-13T10:31:04;12.38;;;9.13;;
12958;SDS011;6544;51.666;6.634;2023-02-13T10:33:37;11.63;;;8.88;;
12958;SDS011;6544;51.666;6.634;2023-02-13T10:36:21;11.70;;;8.95;;
12958;SDS011;6544;51.666;6.634;2023-02-13T10:38:54;12.57;;;9.40;;
12958;SDS011;6544;51.666;6.634;2023-02-13T10:41:24;11.05;;;8.60;;
12958;SDS011;6544;51.666;6.634;2023-02-13T10:44:06;12.40;;;8.57;;
12958;SDS011;6544;51.666;6.634;2023-02-13T10:46:45;11.80;;;9.70;;
12958;SDS011;6544;51.666;6.634;2023-02-13T10:49:25;11.60;;;9.05;;
12958;SDS011;6544;51.666;6.634;2023-02-13T10:52:05;12.55;;;9.40;;
12958;SDS011;6544;51.666;6.634;2023-02-13T10:57:32;12.38;;;8.73;;
12958;SDS011;6544;51.666;6.634;2023-02-13T11:00:19;12.15;;;9.30;;
12958;SDS011;6544;51.666;6.634;2023-02-13T11:02:50;9.88;;;8.20;;
12958;SDS011;6544;51.666;6.634;2023-02-13T11:05:20;12.15;;;7.70;;
12958;SDS011;6544;51.666;6.634;2023-02-13T11:07:49;12.77;;;7.97;;
12958;SDS011;6544;51.666;6.634;2023-02-13T11:10:16;10.88;;;8.88;;
12958;SDS011;6544;51.666;6.634;2023-02-13T11:12:45;10.27;;;7.75;;
12958;SDS011;6544;51.666;6.634;2023-02-13T11:15:20;13.40;;;8.00;;
12958;SDS011;6544;51.666;6.634;2023-02-13T11:17:50;11.02;;;8.60;;
12958;SDS011;6544;51.666;6.634;2023-02-13T11:20:27;10.38;;;8.20;;
12958;SDS011;6544;51.666;6.634;2023-02-13T11:23:10;10.70;;;8.70;;
12958;SDS011;6544;51.666;6.634;2023-02-13T11:25:50;11.77;;;9.20;;
12958;SDS011;6544;51.666;6.634;2023-02-13T11:28:23;10.30;;;8.48;;
12958;SDS011;6544;51.666;6.634;2023-02-13T11:30:52;10.10;;;8.10;;
12958;SDS011;6544;51.666;6.634;2023-02-13T11:33:35;9.48;;;8.02;;
12958;SDS011;6544;51.666;6.634;2023-02-13T11:36:05;11.07;;;8.00;;
12958;SDS011;6544;51.666;6.634;2023-02-13T11:38:33;9.55;;;7.78;;
12958;SDS011;6544;51.666;6.634;2023-02-13T11:41:05;10.38;;;7.93;;
12958;SDS011;6544;51.666;6.634;2023-02-13T11:43:36;11.82;;;8.50;;
12958;SDS011;6544;51.666;6.634;2023-02-13T11:46:11;14.80;;;9.60;;
12958;SDS011;6544;51.666;6.634;2023-02-13T11:48:45;10.48;;;8.13;;
12958;SDS011;6544;51.666;6.634;2023-02-13T11:51:38;10.00;;;8.20;;
12958;SDS011;6544;51.666;6.634;2023-02-13T11:54:16;9.02;;;7.82;;
12958;SDS011;6544;51.666;6.634;2023-02-13T11:56:54;9.77;;;7.90;;
12958;SDS011;6544;51.666;6.634;2023-02-13T11:59:22;10.93;;;8.48;;
12958;SDS011;6544;51.666;6.634;2023-02-13T12:02:01;8.50;;;7.25;;
12958;SDS011;6544;51.666;6.634;2023-02-13T12:04:38;12.07;;;7.78;;
12958;SDS011;6544;51.666;6.634;2023-02-13T12:07:11;12.13;;;7.72;;
12958;SDS011;6544;51.666;6.634;2023-02-13T12:09:41;9.23;;;7.38;;
12958;SDS011;6544;51.666;6.634;2023-02-13T12:12:10;10.75;;;9.10;;
12958;SDS011;6544;51.666;6.634;2023-02-13T12:14:44;9.75;;;8.55;;
12958;SDS011;6544;51.666;6.634;2023-02-13T12:17:12;12.13;;;8.02;;
12958;SDS011;6544;51.666;6.634;2023-02-13T12:19:43;10.50;;;8.50;;
12958;SDS011;6544;51.666;6.634;2023-02-13T12:22:24;11.45;;;9.18;;
12958;SDS011;6544;51.666;6.634;2023-02-13T12:25:02;11.70;;;9.68;;
12958;SDS011;6544;51.666;6.634;2023-02-13T12:27:49;12.60;;;9.73;;
12958;SDS011;6544;51.666;6.634;2023-02-13T12:33:23;10.07;;;9.07;;
12958;SDS011;6544;51.666;6.634;2023-02-13T12:36:05;12.35;;;9.73;;
12958;SDS011;6544;51.666;6.634;2023-02-13T12:38:47;14.75;;;10.13;;
12958;SDS011;6544;51.666;6.634;2023-02-13T12:41:30;11.10;;;9.45;;
12958;SDS011;6544;51.666;6.634;2023-02-13T12:46:59;10.60;;;8.43;;
12958;SDS011;6544;51.666;6.634;2023-02-13T12:49:42;14.15;;;10.27;;
12958;SDS011;6544;51.666;6.634;2023-02-13T12:52:35;11.30;;;9.48;;
12958;SDS011;6544;51.666;6.634;2023-02-13T12:55:16;13.55;;;10.38;;
12958;SDS011;6544;51.666;6.634;2023-02-13T12:57:57;9.85;;;7.88;;
12958;SDS011;6544;51.666;6.634;2023-02-13T13:00:37;13.77;;;8.85;;
12958;SDS011;6544;51.666;6.634;2023-02-13T13:03:22;12.10;;;8.25;;
12958;SDS011;6544;51.666;6.634;2023-02-13T13:06:16;9.57;;;8.15;;
12958;SDS011;6544;51.666;6.634;2023-02-13T13:11:53;11.05;;;7.80;;
12958;SDS011;6544;51.666;6.634;2023-02-13T13:14:31;10.23;;;8.60;;
12958;SDS011;6544;51.666;6.634;2023-02-13T13:17:06;12.43;;;7.78;;
12958;SDS011;6544;51.666;6.634;2023-02-13T13:19:41;16.42;;;8.23;;
12958;SDS011;6544;51.666;6.634;2023-02-13T13:22:17;10.05;;;8.10;;
12958;SDS011;6544;51.666;6.634;2023-02-13T13:24:52;12.85;;;8.15;;
12958;SDS011;6544;51.666;6.634;2023-02-13T13:27:28;9.52;;;8.05;;
12958;SDS011;6544;51.666;6.634;2023-02-13T13:29:59;11.35;;;7.70;;
12958;SDS011;6544;51.666;6.634;2023-02-13T13:32:31;12.98;;;8.68;;
12958;SDS011;6544;51.666;6.634;2023-02-13T13:34:59;9.98;;;7.63;;
12958;SDS011;6544;51.666;6.634;2023-02-13T13:37:29;14.07;;;9.70;;
12958;SDS011;6544;51.666;6.634;2023-02-13T13:40:00;11.77;;;9.23;;
12958;SDS011;6544;51.666;6.634;2023-02-13T13:42:41;10.88;;;7.80;;
12958;SDS011;6544;51.666;6.634;2023-02-13T13:45:20;11.55;;;9.75;;
12958;SDS011;6544;51.666;6.634;2023-02-13T13:47:59;10.85;;;7.90;;
12958;SDS011;6544;51.666;6.634;2023-02-13T13:50:43;11.10;;;8.68;;
12958;SDS011;6544;51.666;6.634;2023-02-13T13:53:11;11.50;;;9.57;;
12958;SDS011;6544;51.666;6.634;2023-02-13T13:58:42;11.48;;;9.40;;
12958;SDS011;6544;51.666;6.634;2023-02-13T14:04:01;11.00;;;8.90;;
12958;SDS011;6544;51.666;6.634;2023-02-13T14:09:44;12.43;;;9.95;;
12958;SDS011;6544;51.666;6.634;2023-02-13T14:15:04;12.23;;;10.48;;
12958;SDS011;6544;51.666;6.634;2023-02-13T14:17:54;11.55;;;9.20;;
12958;SDS011;6544;51.666;6.634;2023-02-13T14:20:30;13.70;;;8.95;;
12958;SDS011;6544;51.666;6.634;2023-02-13T14:23:07;15.15;;;9.43;;
12958;SDS011;6544;51.666;6.634;2023-02-13T14:25:42;10.15;;;8.35;;
12958;SDS011;6544;51.666;6.634;2023-02-13T14:28:17;12.20;;;7.50;;
12958;SDS011;6544;51.666;6.634;2023-02-13T14:30:51;11.52;;;9.43;;
12958;SDS011;6544;51.666;6.634;2023-02-13T14:33:29;11.02;;;9.80;;
12958;SDS011;6544;51.666;6.634;2023-02-13T14:35:58;12.23;;;9.57;;
12958;SDS011;6544;51.666;6.634;2023-02-13T14:38:28;12.48;;;9.13;;
12958;SDS011;6544;51.666;6.634;2023-02-13T14:40:55;10.73;;;8.32;;
12958;SDS011;6544;51.666;6.634;2023-02-13T14:43:36;28.15;;;21.17;;
12958;SDS011;6544;51.666;6.634;2023-02-13T14:46:19;32.78;;;21.40;;
12958;SDS011;6544;51.666;6.634;2023-02-13T14:48:54;15.82;;;12.70;;
12958;SDS011;6544;51.666;6.634;2023-02-13T14:51:25;14.77;;;10.25;;
12958;SDS011;6544;51.666;6.634;2023-02-13T14:54:06;11.43;;;9.75;;
12958;SDS011;6544;51.666;6.634;2023-02-13T14:56:41;14.90;;;10.38;;
12958;SDS011;6544;51.666;6.634;2023-02-13T14:59:12;15.27;;;10.02;;
12958;SDS011;6544;51.666;6.634;2023-02-13T15:01:45;12.43;;;9.98;;
12958;SDS011;6544;51.666;6.634;2023-02-13T15:04:16;14.45;;;11.70;;
12958;SDS011;6544;51.666;6.634;2023-02-13T15:06:49;14.30;;;11.13;;
12958;SDS011;6544;51.666;6.634;2023-02-13T15:09:23;12.70;;;10.55;;
12958;SDS011;6544;51.666;6.634;2023-02-13T15:11:56;11.20;;;9.23;;
12958;SDS011;6544;51.666;6.634;2023-02-13T15:14:27;15.75;;;9.98;;
12958;SDS011;6544;51.666;6.634;2023-02-13T15:16:58;15.77;;;12.48;;
12958;SDS011;6544;51.666;6.634;2023-02-13T15:19:30;13.73;;;10.85;;
12958;SDS011;6544;51.666;6.634;2023-02-13T15:22:00;14.82;;;10.07;;
12958;SDS011;6544;51.666;6.634;2023-02-13T15:24:29;17.42;;;13.13;;
12958;SDS011;6544;51.666;6.634;2023-02-13T15:27:02;14.98;;;12.32;;
12958;SDS011;6544;51.666;6.634;2023-02-13T15:29:30;15.38;;;10.45;;
12958;SDS011;6544;51.666;6.634;2023-02-13T15:31:59;13.93;;;8.95;;
12958;SDS011;6544;51.666;6.634;2023-02-13T15:34:26;13.40;;;11.25;;
12958;SDS011;6544;51.666;6.634;2023-02-13T15:36:56;15.75;;;12.98;;
12958;SDS011;6544;51.666;6.634;2023-02-13T15:39:24;18.52;;;15.43;;
12958;SDS011;6544;51.666;6.634;2023-02-13T15:41:52;12.38;;;10.55;;
12958;SDS011;6544;51.666;6.634;2023-02-13T15:44:23;13.48;;;10.88;;